Terminal Aerodrome Forecast
Issued by NWS

Home | Current Version | Previous Version | Graphics & Text | Print | Product List | Glossary On
Versions: 1 2 3 4 5 6 7 8 9 10 11 12 13 14 15
000
FTUS43 KMPX 020520
TAFRNH
TAF
KRNH 020520Z 0206/0306 29010KT P6SM FEW250
     FM021500 20004KT P6SM SCT250
     FM021800 17009KT P6SM BKN100=

USA.gov is the U.S. government's official web portal to all federal, state and local government web resources and services.